sensor_id;sensor_type;location;lat;lon;timestamp;pressure;altitude;pressure_sealevel;temperature;humidity
75409;BME280;63979;55.644;37.734;2023-08-07T00:00:21;100149.38;;;24.15;64.62
75409;BME280;63979;55.644;37.734;2023-08-07T00:05:23;100151.25;;;24.14;64.73
75409;BME280;63979;55.644;37.734;2023-08-07T00:10:24;100111.47;;;23.82;65.27
75409;BME280;63979;55.644;37.734;2023-08-07T00:15:25;100152.63;;;23.95;65.00
75409;BME280;63979;55.644;37.734;2023-08-07T00:20:26;100155.19;;;23.97;65.06
75409;BME280;63979;55.644;37.734;2023-08-07T00:25:27;100149.28;;;23.85;64.57
75409;BME280;63979;55.644;37.734;2023-08-07T00:30:28;100146.06;;;23.82;65.18
75409;BME280;63979;55.644;37.734;2023-08-07T00:35:29;100151.34;;;23.83;65.06
75409;BME280;63979;55.644;37.734;2023-08-07T00:40:40;100153.22;;;23.83;65.31
75409;BME280;63979;55.644;37.734;2023-08-07T00:45:43;100143.97;;;23.69;64.71
75409;BME280;63979;55.644;37.734;2023-08-07T00:50:46;100148.75;;;23.67;64.59
75409;BME280;63979;55.644;37.734;2023-08-07T00:55:49;100147.44;;;23.63;64.78
75409;BME280;63979;55.644;37.734;2023-08-07T01:00:50;100148.13;;;23.57;65.05
75409;BME280;63979;55.644;37.734;2023-08-07T01:05:51;100137.56;;;23.54;65.02
75409;BME280;63979;55.644;37.734;2023-08-07T01:11:11;100134.53;;;23.49;64.88
75409;BME280;63979;55.644;37.734;2023-08-07T01:16:37;100137.25;;;23.49;64.91
75409;BME280;63979;55.644;37.734;2023-08-07T01:21:45;100125.09;;;23.37;65.22
75409;BME280;63979;55.644;37.734;2023-08-07T01:26:49;100131.56;;;23.36;65.30
75409;BME280;63979;55.644;37.734;2023-08-07T01:31:53;100116.69;;;23.15;66.01
75409;BME280;63979;55.644;37.734;2023-08-07T01:36:57;100128.38;;;23.24;66.21
75409;BME280;63979;55.644;37.734;2023-08-07T01:41:59;100116.81;;;23.22;65.88
75409;BME280;63979;55.644;37.734;2023-08-07T01:47:02;100119.25;;;23.17;66.25
75409;BME280;63979;55.644;37.734;2023-08-07T01:52:04;100129.66;;;23.13;66.16
75409;BME280;63979;55.644;37.734;2023-08-07T01:57:05;100112.50;;;23.05;66.09
75409;BME280;63979;55.644;37.734;2023-08-07T02:02:06;100125.94;;;23.06;65.97
75409;BME280;63979;55.644;37.734;2023-08-07T02:07:07;100115.72;;;23.08;65.62
75409;BME280;63979;55.644;37.734;2023-08-07T02:12:08;100128.00;;;23.04;65.63
75409;BME280;63979;55.644;37.734;2023-08-07T02:17:09;100119.81;;;23.04;65.66
75409;BME280;63979;55.644;37.734;2023-08-07T02:22:10;100132.41;;;23.05;65.60
75409;BME280;63979;55.644;37.734;2023-08-07T02:27:11;100119.97;;;23.11;65.32
75409;BME280;63979;55.644;37.734;2023-08-07T02:32:12;100116.06;;;23.05;65.73
75409;BME280;63979;55.644;37.734;2023-08-07T02:37:13;100116.75;;;23.07;65.03
75409;BME280;63979;55.644;37.734;2023-08-07T02:42:14;100078.06;;;22.81;65.26
75409;BME280;63979;55.644;37.734;2023-08-07T02:47:15;100121.47;;;23.13;65.32
75409;BME280;63979;55.644;37.734;2023-08-07T02:52:16;100109.44;;;23.08;65.22
75409;BME280;63979;55.644;37.734;2023-08-07T02:57:17;100118.38;;;23.16;65.49
75409;BME280;63979;55.644;37.734;2023-08-07T03:02:18;100127.22;;;23.26;64.70
75409;BME280;63979;55.644;37.734;2023-08-07T03:07:19;100119.16;;;23.33;64.76
75409;BME280;63979;55.644;37.734;2023-08-07T03:12:20;100124.97;;;23.30;64.47
75409;BME280;63979;55.644;37.734;2023-08-07T03:17:22;100118.31;;;23.32;64.91
75409;BME280;63979;55.644;37.734;2023-08-07T03:22:23;100121.03;;;23.32;64.53
75409;BME280;63979;55.644;37.734;2023-08-07T03:27:24;100120.84;;;23.34;63.88
75409;BME280;63979;55.644;37.734;2023-08-07T03:32:26;100116.84;;;23.45;63.73
75409;BME280;63979;55.644;37.734;2023-08-07T03:37:27;100113.81;;;23.40;64.16
75409;BME280;63979;55.644;37.734;2023-08-07T03:42:28;100110.25;;;23.39;63.47
75409;BME280;63979;55.644;37.734;2023-08-07T03:47:29;100114.72;;;23.63;63.37
75409;BME280;63979;55.644;37.734;2023-08-07T03:52:30;100112.28;;;23.68;63.37
75409;BME280;63979;55.644;37.734;2023-08-07T03:57:31;100112.03;;;23.78;62.89
75409;BME280;63979;55.644;37.734;2023-08-07T04:02:32;100106.56;;;24.01;61.60
75409;BME280;63979;55.644;37.734;2023-08-07T04:07:34;100073.81;;;24.01;60.98
75409;BME280;63979;55.644;37.734;2023-08-07T04:12:35;100098.44;;;24.45;60.22
75409;BME280;63979;55.644;37.734;2023-08-07T04:17:36;100113.50;;;24.70;59.29
75409;BME280;63979;55.644;37.734;2023-08-07T04:22:38;100113.00;;;24.96;58.79
75409;BME280;63979;55.644;37.734;2023-08-07T04:27:39;100113.19;;;25.09;58.23
75409;BME280;63979;55.644;37.734;2023-08-07T04:32:40;100101.63;;;25.07;57.31
75409;BME280;63979;55.644;37.734;2023-08-07T04:37:41;100115.09;;;25.30;56.95
75409;BME280;63979;55.644;37.734;2023-08-07T04:42:42;100082.91;;;25.47;56.52
75409;BME280;63979;55.644;37.734;2023-08-07T04:47:43;100111.56;;;25.94;55.03
75409;BME280;63979;55.644;37.734;2023-08-07T04:52:44;100104.13;;;26.09;54.59
75409;BME280;63979;55.644;37.734;2023-08-07T04:57:45;100108.19;;;26.20;53.86
75409;BME280;63979;55.644;37.734;2023-08-07T05:02:47;100094.31;;;26.49;52.55
75409;BME280;63979;55.644;37.734;2023-08-07T05:07:51;100090.19;;;26.66;51.79
75409;BME280;63979;55.644;37.734;2023-08-07T05:12:52;100064.25;;;27.03;50.74
75409;BME280;63979;55.644;37.734;2023-08-07T05:17:56;100075.69;;;27.27;50.32
75409;BME280;63979;55.644;37.734;2023-08-07T05:22:57;100088.47;;;27.81;49.55
75409;BME280;63979;55.644;37.734;2023-08-07T05:27:58;100089.25;;;27.55;49.21
75409;BME280;63979;55.644;37.734;2023-08-07T05:32:59;100072.22;;;27.86;49.18
75409;BME280;63979;55.644;37.734;2023-08-07T05:38:00;100075.81;;;28.13;47.77
75409;BME280;63979;55.644;37.734;2023-08-07T05:43:02;100072.75;;;28.67;47.04
75409;BME280;63979;55.644;37.734;2023-08-07T05:48:03;100081.06;;;31.04;42.19
75409;BME280;63979;55.644;37.734;2023-08-07T05:53:05;100073.69;;;32.82;36.41
75409;BME280;63979;55.644;37.734;2023-08-07T05:58:06;100069.91;;;34.02;34.26
75409;BME280;63979;55.644;37.734;2023-08-07T06:03:07;100067.78;;;34.43;31.60
75409;BME280;63979;55.644;37.734;2023-08-07T06:08:08;100064.72;;;35.31;31.77
75409;BME280;63979;55.644;37.734;2023-08-07T06:13:09;100065.28;;;36.62;29.53
75409;BME280;63979;55.644;37.734;2023-08-07T06:18:10;100073.06;;;36.60;28.54
75409;BME280;63979;55.644;37.734;2023-08-07T06:23:12;100065.22;;;36.46;28.36
75409;BME280;63979;55.644;37.734;2023-08-07T06:28:13;100068.78;;;36.42;28.77
75409;BME280;63979;55.644;37.734;2023-08-07T06:33:15;100067.63;;;37.73;27.17
75409;BME280;63979;55.644;37.734;2023-08-07T06:38:16;100071.25;;;37.89;26.31
75409;BME280;63979;55.644;37.734;2023-08-07T06:43:17;100065.91;;;38.13;25.77
75409;BME280;63979;55.644;37.734;2023-08-07T06:48:18;100064.75;;;38.49;24.89
75409;BME280;63979;55.644;37.734;2023-08-07T06:53:20;100069.75;;;38.73;24.66
75409;BME280;63979;55.644;37.734;2023-08-07T06:58:21;100066.84;;;38.98;23.97
75409;BME280;63979;55.644;37.734;2023-08-07T07:03:22;100049.91;;;39.34;23.89
75409;BME280;63979;55.644;37.734;2023-08-07T07:08:23;100062.84;;;37.53;25.08
75409;BME280;63979;55.644;37.734;2023-08-07T07:13:24;100039.47;;;37.85;24.50
75409;BME280;63979;55.644;37.734;2023-08-07T07:18:25;100048.63;;;39.60;23.27
75409;BME280;63979;55.644;37.734;2023-08-07T07:23:27;100041.34;;;40.27;22.44
75409;BME280;63979;55.644;37.734;2023-08-07T07:28:28;100051.88;;;39.72;22.46
75409;BME280;63979;55.644;37.734;2023-08-07T07:33:30;100035.09;;;40.06;21.90
75409;BME280;63979;55.644;37.734;2023-08-07T07:38:31;100053.91;;;40.30;20.96
75409;BME280;63979;55.644;37.734;2023-08-07T07:43:32;100045.53;;;40.53;21.80
75409;BME280;63979;55.644;37.734;2023-08-07T07:48:33;100032.03;;;41.03;20.74
75409;BME280;63979;55.644;37.734;2023-08-07T07:53:34;100022.69;;;41.32;20.42
75409;BME280;63979;55.644;37.734;2023-08-07T07:58:35;100029.03;;;40.23;21.83
75409;BME280;63979;55.644;37.734;2023-08-07T08:03:36;100018.75;;;41.98;19.66
75409;BME280;63979;55.644;37.734;2023-08-07T08:08:37;100023.00;;;41.30;20.07
75409;BME280;63979;55.644;37.734;2023-08-07T08:13:39;100025.25;;;40.86;20.64
75409;BME280;63979;55.644;37.734;2023-08-07T08:18:42;100022.22;;;41.25;19.88
75409;BME280;63979;55.644;37.734;2023-08-07T08:23:43;100008.06;;;40.49;20.90
75409;BME280;63979;55.644;37.734;2023-08-07T08:28:44;100009.81;;;40.88;20.54
75409;BME280;63979;55.644;37.734;2023-08-07T08:33:45;99984.44;;;39.00;22.20
75409;BME280;63979;55.644;37.734;2023-08-07T08:38:46;100002.56;;;40.87;20.11
75409;BME280;63979;55.644;37.734;2023-08-07T08:43:49;100003.31;;;41.49;19.90
75409;BME280;63979;55.644;37.734;2023-08-07T08:48:57;99998.91;;;43.18;18.48
75409;BME280;63979;55.644;37.734;2023-08-07T08:53:59;99993.50;;;45.16;16.60
75409;BME280;63979;55.644;37.734;2023-08-07T08:59:02;99980.63;;;46.43;15.03
75409;BME280;63979;55.644;37.734;2023-08-07T09:04:04;99987.50;;;45.00;16.49
75409;BME280;63979;55.644;37.734;2023-08-07T09:09:06;99984.09;;;44.15;16.57
75409;BME280;63979;55.644;37.734;2023-08-07T09:14:11;99960.81;;;42.62;18.32
75409;BME280;63979;55.644;37.734;2023-08-07T09:19:15;99978.91;;;45.14;16.01
75409;BME280;63979;55.644;37.734;2023-08-07T09:24:16;99932.56;;;44.63;16.47
75409;BME280;63979;55.644;37.734;2023-08-07T09:29:20;99979.84;;;46.64;14.75
75409;BME280;63979;55.644;37.734;2023-08-07T09:34:21;99970.16;;;46.06;15.00
75409;BME280;63979;55.644;37.734;2023-08-07T09:39:23;99951.78;;;44.13;16.96
75409;BME280;63979;55.644;37.734;2023-08-07T09:44:37;99942.69;;;43.85;16.99
75409;BME280;63979;55.644;37.734;2023-08-07T09:49:39;99934.03;;;44.52;16.25
75409;BME280;63979;55.644;37.734;2023-08-07T09:54:40;99940.53;;;43.60;17.13
75409;BME280;63979;55.644;37.734;2023-08-07T09:59:42;99929.56;;;44.60;17.23
75409;BME280;63979;55.644;37.734;2023-08-07T10:04:43;99923.25;;;44.54;16.84
75409;BME280;63979;55.644;37.734;2023-08-07T10:09:45;99916.47;;;44.72;16.08
75409;BME280;63979;55.644;37.734;2023-08-07T10:14:47;99909.91;;;44.86;16.57
75409;BME280;63979;55.644;37.734;2023-08-07T10:19:51;99902.38;;;45.50;15.97
75409;BME280;63979;55.644;37.734;2023-08-07T10:24:53;99906.53;;;44.49;16.36
75409;BME280;63979;55.644;37.734;2023-08-07T10:29:56;99904.41;;;45.15;15.86
75409;BME280;63979;55.644;37.734;2023-08-07T10:34:59;99902.88;;;44.74;16.41
75409;BME280;63979;55.644;37.734;2023-08-07T10:40:04;99885.66;;;44.67;16.76
75409;BME280;63979;55.644;37.734;2023-08-07T10:45:06;99879.69;;;45.29;15.86
75409;BME280;63979;55.644;37.734;2023-08-07T10:50:09;99871.03;;;43.91;16.73
75409;BME280;63979;55.644;37.734;2023-08-07T10:55:14;99862.56;;;45.52;15.79
75409;BME280;63979;55.644;37.734;2023-08-07T11:00:16;99840.47;;;45.54;15.70
75409;BME280;63979;55.644;37.734;2023-08-07T11:05:18;99847.09;;;45.66;15.82
75409;BME280;63979;55.644;37.734;2023-08-07T11:10:20;99859.56;;;44.27;16.71
75409;BME280;63979;55.644;37.734;2023-08-07T11:15:21;99834.16;;;42.50;18.51
75409;BME280;63979;55.644;37.734;2023-08-07T11:20:22;99832.22;;;44.19;17.09
75409;BME280;63979;55.644;37.734;2023-08-07T11:25:23;99832.09;;;45.28;16.56
75409;BME280;63979;55.644;37.734;2023-08-07T11:30:26;99806.84;;;47.12;14.82
75409;BME280;63979;55.644;37.734;2023-08-07T11:35:28;99832.69;;;46.89;15.24
75409;BME280;63979;55.644;37.734;2023-08-07T11:40:29;99828.75;;;46.40;15.28
75409;BME280;63979;55.644;37.734;2023-08-07T11:45:30;99818.44;;;45.38;16.16
75409;BME280;63979;55.644;37.734;2023-08-07T11:50:32;99836.91;;;44.75;16.55
75409;BME280;63979;55.644;37.734;2023-08-07T11:55:33;99808.38;;;43.68;17.75
75409;BME280;63979;55.644;37.734;2023-08-07T12:00:34;99804.81;;;42.56;18.49
75409;BME280;63979;55.644;37.734;2023-08-07T12:05:40;99789.00;;;44.24;17.00
75409;BME280;63979;55.644;37.734;2023-08-07T12:10:41;99770.81;;;43.33;18.25
75409;BME280;63979;55.644;37.734;2023-08-07T12:15:42;99779.84;;;42.18;19.62
75409;BME280;63979;55.644;37.734;2023-08-07T12:20:43;99772.53;;;39.76;22.50
75409;BME280;63979;55.644;37.734;2023-08-07T12:25:45;99748.13;;;37.92;24.13
75409;BME280;63979;55.644;37.734;2023-08-07T12:30:47;99754.78;;;36.91;25.33
75409;BME280;63979;55.644;37.734;2023-08-07T12:35:48;99747.25;;;36.61;25.82
75409;BME280;63979;55.644;37.734;2023-08-07T12:40:50;99742.50;;;36.41;26.07
75409;BME280;63979;55.644;37.734;2023-08-07T12:45:51;99714.41;;;36.33;26.46
75409;BME280;63979;55.644;37.734;2023-08-07T12:50:53;99730.81;;;37.05;25.94
75409;BME280;63979;55.644;37.734;2023-08-07T12:55:54;99725.31;;;37.80;24.78
75409;BME280;63979;55.644;37.734;2023-08-07T13:00:55;99718.59;;;37.86;24.23
75409;BME280;63979;55.644;37.734;2023-08-07T13:05:56;99721.75;;;38.58;23.47
75409;BME280;63979;55.644;37.734;2023-08-07T13:10:57;99714.31;;;38.43;23.80
75409;BME280;63979;55.644;37.734;2023-08-07T13:15:59;99697.16;;;38.65;23.12
75409;BME280;63979;55.644;37.734;2023-08-07T13:21:00;99684.75;;;38.76;23.78
75409;BME280;63979;55.644;37.734;2023-08-07T13:26:01;99686.38;;;39.59;22.14
75409;BME280;63979;55.644;37.734;2023-08-07T13:31:02;99651.78;;;37.66;24.37
75409;BME280;63979;55.644;37.734;2023-08-07T13:36:03;99663.00;;;37.56;25.56
75409;BME280;63979;55.644;37.734;2023-08-07T13:41:04;99664.91;;;36.55;26.33
75409;BME280;63979;55.644;37.734;2023-08-07T13:46:06;99627.81;;;35.68;27.70
75409;BME280;63979;55.644;37.734;2023-08-07T13:51:07;99661.25;;;34.74;28.83
75409;BME280;63979;55.644;37.734;2023-08-07T13:56:09;99645.06;;;34.28;29.57
75409;BME280;63979;55.644;37.734;2023-08-07T14:01:13;99631.91;;;34.14;30.21
75409;BME280;63979;55.644;37.734;2023-08-07T14:06:15;99632.28;;;33.95;31.15
75409;BME280;63979;55.644;37.734;2023-08-07T14:11:16;99638.56;;;33.86;31.21
75409;BME280;63979;55.644;37.734;2023-08-07T14:16:17;99617.75;;;33.56;31.25
75409;BME280;63979;55.644;37.734;2023-08-07T14:21:18;99617.25;;;33.15;32.01
75409;BME280;63979;55.644;37.734;2023-08-07T14:26:20;99601.41;;;32.89;32.31
75409;BME280;63979;55.644;37.734;2023-08-07T14:31:21;99594.19;;;32.88;32.83
75409;BME280;63979;55.644;37.734;2023-08-07T14:36:23;99607.72;;;32.68;32.99
75409;BME280;63979;55.644;37.734;2023-08-07T14:41:24;99587.75;;;32.44;34.04
75409;BME280;63979;55.644;37.734;2023-08-07T14:46:25;99593.41;;;32.54;34.09
75409;BME280;63979;55.644;37.734;2023-08-07T14:51:26;99597.81;;;32.33;33.87
75409;BME280;63979;55.644;37.734;2023-08-07T14:56:27;99585.34;;;32.31;33.92
75409;BME280;63979;55.644;37.734;2023-08-07T15:01:28;99590.75;;;32.09;33.64
75409;BME280;63979;55.644;37.734;2023-08-07T15:06:29;99593.78;;;32.07;33.92
75409;BME280;63979;55.644;37.734;2023-08-07T15:11:30;99590.31;;;31.83;34.72
75409;BME280;63979;55.644;37.734;2023-08-07T15:16:32;99580.81;;;31.62;34.97
75409;BME280;63979;55.644;37.734;2023-08-07T15:21:33;99580.13;;;31.55;35.23
75409;BME280;63979;55.644;37.734;2023-08-07T15:26:34;99576.00;;;31.41;35.57
75409;BME280;63979;55.644;37.734;2023-08-07T15:31:35;99563.53;;;31.39;35.78
75409;BME280;63979;55.644;37.734;2023-08-07T15:36:36;99558.09;;;31.27;35.69
75409;BME280;63979;55.644;37.734;2023-08-07T15:41:37;99538.66;;;31.10;36.11
75409;BME280;63979;55.644;37.734;2023-08-07T15:46:38;99547.34;;;31.02;36.44
75409;BME280;63979;55.644;37.734;2023-08-07T15:51:40;99547.63;;;30.89;36.21
75409;BME280;63979;55.644;37.734;2023-08-07T15:56:42;99542.28;;;30.70;36.28
75409;BME280;63979;55.644;37.734;2023-08-07T16:01:43;99539.53;;;30.59;36.34
75409;BME280;63979;55.644;37.734;2023-08-07T16:06:44;99550.34;;;30.60;36.24
75409;BME280;63979;55.644;37.734;2023-08-07T16:11:45;99545.28;;;30.46;37.22
75409;BME280;63979;55.644;37.734;2023-08-07T16:16:46;99548.53;;;30.31;37.59
75409;BME280;63979;55.644;37.734;2023-08-07T16:21:47;99501.69;;;29.96;37.92
75409;BME280;63979;55.644;37.734;2023-08-07T16:26:48;99498.47;;;29.87;37.52
75409;BME280;63979;55.644;37.734;2023-08-07T16:31:49;99535.22;;;30.04;37.89
75409;BME280;63979;55.644;37.734;2023-08-07T16:36:51;99523.31;;;29.80;38.08
75409;BME280;63979;55.644;37.734;2023-08-07T16:41:52;99524.03;;;29.76;38.38
75409;BME280;63979;55.644;37.734;2023-08-07T16:46:53;99509.44;;;29.64;38.33
75409;BME280;63979;55.644;37.734;2023-08-07T16:51:54;99516.50;;;29.60;39.19
75409;BME280;63979;55.644;37.734;2023-08-07T16:56:58;99512.09;;;29.40;39.54
75409;BME280;63979;55.644;37.734;2023-08-07T17:02:00;99527.38;;;29.36;39.74
75409;BME280;63979;55.644;37.734;2023-08-07T17:07:01;99514.19;;;29.15;40.15
75409;BME280;63979;55.644;37.734;2023-08-07T17:12:03;99522.88;;;29.12;40.68
75409;BME280;63979;55.644;37.734;2023-08-07T17:17:05;99496.25;;;28.76;40.55
75409;BME280;63979;55.644;37.734;2023-08-07T17:22:06;99529.81;;;28.84;41.83
75409;BME280;63979;55.644;37.734;2023-08-07T17:27:07;99520.31;;;28.62;42.00
75409;BME280;63979;55.644;37.734;2023-08-07T17:32:08;99517.75;;;28.49;42.24
75409;BME280;63979;55.644;37.734;2023-08-07T17:37:09;99526.03;;;28.42;42.79
75409;BME280;63979;55.644;37.734;2023-08-07T17:42:10;99522.41;;;28.23;43.65
75409;BME280;63979;55.644;37.734;2023-08-07T17:47:11;99532.03;;;28.14;43.18
75409;BME280;63979;55.644;37.734;2023-08-07T17:52:12;99518.78;;;28.05;44.04
75409;BME280;63979;55.644;37.734;2023-08-07T17:57:13;99515.50;;;27.96;44.17
75409;BME280;63979;55.644;37.734;2023-08-07T18:02:14;99522.34;;;27.87;44.03
75409;BME280;63979;55.644;37.734;2023-08-07T18:07:15;99532.16;;;27.76;44.38
75409;BME280;63979;55.644;37.734;2023-08-07T18:12:16;99540.88;;;27.67;44.68
75409;BME280;63979;55.644;37.734;2023-08-07T18:17:18;99531.25;;;27.51;45.05
75409;BME280;63979;55.644;37.734;2023-08-07T18:22:19;99515.19;;;27.23;45.38
75409;BME280;63979;55.644;37.734;2023-08-07T18:27:20;99560.69;;;27.30;45.81
75409;BME280;63979;55.644;37.734;2023-08-07T18:32:22;99529.44;;;27.00;46.15
75409;BME280;63979;55.644;37.734;2023-08-07T18:37:24;99560.81;;;27.11;46.47
75409;BME280;63979;55.644;37.734;2023-08-07T18:42:25;99563.78;;;27.02;47.24
75409;BME280;63979;55.644;37.734;2023-08-07T18:47:26;99572.44;;;26.99;47.46
75409;BME280;63979;55.644;37.734;2023-08-07T18:52:27;99568.44;;;26.95;47.20
75409;BME280;63979;55.644;37.734;2023-08-07T18:57:28;99560.47;;;26.87;47.36
75409;BME280;63979;55.644;37.734;2023-08-07T19:02:29;99557.97;;;26.79;47.93
75409;BME280;63979;55.644;37.734;2023-08-07T19:07:31;99554.84;;;26.69;47.85
75409;BME280;63979;55.644;37.734;2023-08-07T19:12:32;99545.38;;;26.65;47.98
75409;BME280;63979;55.644;37.734;2023-08-07T19:17:33;99542.25;;;26.55;47.90
75409;BME280;63979;55.644;37.734;2023-08-07T19:22:40;99527.78;;;26.41;48.19
75409;BME280;63979;55.644;37.734;2023-08-07T19:27:42;99516.19;;;26.39;48.38
75409;BME280;63979;55.644;37.734;2023-08-07T19:32:43;99518.06;;;26.25;48.31
75409;BME280;63979;55.644;37.734;2023-08-07T19:37:44;99533.00;;;26.29;48.09
75409;BME280;63979;55.644;37.734;2023-08-07T19:42:45;99521.03;;;26.24;48.54
75409;BME280;63979;55.644;37.734;2023-08-07T19:47:47;99509.69;;;26.14;48.38
75409;BME280;63979;55.644;37.734;2023-08-07T19:52:48;99507.19;;;26.05;48.94
75409;BME280;63979;55.644;37.734;2023-08-07T19:57:49;99493.09;;;25.95;48.86
75409;BME280;63979;55.644;37.734;2023-08-07T20:02:51;99500.44;;;26.01;48.52
75409;BME280;63979;55.644;37.734;2023-08-07T20:07:52;99490.75;;;25.99;48.46
75409;BME280;63979;55.644;37.734;2023-08-07T20:12:53;99468.25;;;25.97;48.53
75409;BME280;63979;55.644;37.734;2023-08-07T20:17:54;99457.75;;;25.80;48.73
75409;BME280;63979;55.644;37.734;2023-08-07T20:22:55;99441.16;;;25.82;48.85
75409;BME280;63979;55.644;37.734;2023-08-07T20:27:56;99437.38;;;25.76;48.58
75409;BME280;63979;55.644;37.734;2023-08-07T20:32:57;99404.13;;;25.53;48.80
75409;BME280;63979;55.644;37.734;2023-08-07T20:37:59;99451.47;;;25.73;48.49
75409;BME280;63979;55.644;37.734;2023-08-07T20:43:00;99459.25;;;25.70;48.42
75409;BME280;63979;55.644;37.734;2023-08-07T20:48:01;99461.53;;;25.60;48.72
75409;BME280;63979;55.644;37.734;2023-08-07T20:53:02;99477.50;;;25.56;49.08
75409;BME280;63979;55.644;37.734;2023-08-07T20:58:04;99461.34;;;25.48;49.12
75409;BME280;63979;55.644;37.734;2023-08-07T21:03:05;99458.41;;;25.36;49.56
75409;BME280;63979;55.644;37.734;2023-08-07T21:08:06;99456.69;;;25.29;50.26
75409;BME280;63979;55.644;37.734;2023-08-07T21:13:07;99424.94;;;25.01;50.17
75409;BME280;63979;55.644;37.734;2023-08-07T21:18:09;99448.06;;;24.99;50.55
75409;BME280;63979;55.644;37.734;2023-08-07T21:23:10;99440.69;;;24.99;50.83
75409;BME280;63979;55.644;37.734;2023-08-07T21:28:12;99428.22;;;24.90;51.10
75409;BME280;63979;55.644;37.734;2023-08-07T21:33:13;99443.56;;;24.91;51.14
75409;BME280;63979;55.644;37.734;2023-08-07T21:38:14;99439.78;;;24.79;51.65
75409;BME280;63979;55.644;37.734;2023-08-07T21:43:16;99442.28;;;24.74;52.30
75409;BME280;63979;55.644;37.734;2023-08-07T21:48:16;99437.22;;;24.64;52.47
75409;BME280;63979;55.644;37.734;2023-08-07T21:53:17;99437.22;;;24.64;52.74
75409;BME280;63979;55.644;37.734;2023-08-07T21:58:18;99429.19;;;24.56;53.51
75409;BME280;63979;55.644;37.734;2023-08-07T22:03:19;99432.13;;;24.48;53.58
75409;BME280;63979;55.644;37.734;2023-08-07T22:08:20;99432.09;;;24.41;53.94
75409;BME280;63979;55.644;37.734;2023-08-07T22:13:22;99446.97;;;24.32;54.15
75409;BME280;63979;55.644;37.734;2023-08-07T22:18:23;99486.25;;;24.10;55.12
75409;BME280;63979;55.644;37.734;2023-08-07T22:23:23;99504.53;;;24.16;55.13
75409;BME280;63979;55.644;37.734;2023-08-07T22:28:27;99501.34;;;24.06;55.39
75409;BME280;63979;55.644;37.734;2023-08-07T22:33:28;99509.13;;;24.09;55.15
75409;BME280;63979;55.644;37.734;2023-08-07T22:38:29;99495.19;;;23.97;55.65
75409;BME280;63979;55.644;37.734;2023-08-07T22:43:33;99477.44;;;24.08;55.05
75409;BME280;63979;55.644;37.734;2023-08-07T22:48:34;99472.63;;;24.10;54.97
75409;BME280;63979;55.644;37.734;2023-08-07T22:53:35;99463.75;;;24.01;55.39
75409;BME280;63979;55.644;37.734;2023-08-07T22:58:36;99451.38;;;23.99;55.26
75409;BME280;63979;55.644;37.734;2023-08-07T23:03:37;99456.56;;;23.93;55.89
75409;BME280;63979;55.644;37.734;2023-08-07T23:08:38;99467.22;;;23.88;55.48
75409;BME280;63979;55.644;37.734;2023-08-07T23:13:39;99465.31;;;23.82;55.79
75409;BME280;63979;55.644;37.734;2023-08-07T23:18:40;99425.44;;;23.81;55.89
75409;BME280;63979;55.644;37.734;2023-08-07T23:23:41;99432.94;;;23.73;55.71
75409;BME280;63979;55.644;37.734;2023-08-07T23:28:42;99435.00;;;23.64;55.52
75409;BME280;63979;55.644;37.734;2023-08-07T23:33:43;99427.47;;;23.66;55.41
75409;BME280;63979;55.644;37.734;2023-08-07T23:38:44;99428.09;;;23.68;54.74
75409;BME280;63979;55.644;37.734;2023-08-07T23:43:46;99433.31;;;23.63;54.77
75409;BME280;63979;55.644;37.734;2023-08-07T23:48:48;99437.16;;;23.54;55.11
75409;BME280;63979;55.644;37.734;2023-08-07T23:53:49;99425.81;;;23.50;55.36
75409;BME280;63979;55.644;37.734;2023-08-07T23:58:50;99415.09;;;23.42;56.06
